sensor_id;sensor_type;location;lat;lon;timestamp;temperature;humidity
13231;DHT22;6681;53.254;10.398;2022-11-15T00:01:35;6.60;99.90
13231;DHT22;6681;53.254;10.398;2022-11-15T00:04:03;6.30;99.90
13231;DHT22;6681;53.254;10.398;2022-11-15T00:06:29;6.20;99.90
13231;DHT22;6681;53.254;10.398;2022-11-15T00:08:57;6.20;99.90
13231;DHT22;6681;53.254;10.398;2022-11-15T00:11:22;6.20;99.90
13231;DHT22;6681;53.254;10.398;2022-11-15T00:13:48;6.20;99.90
13231;DHT22;6681;53.254;10.398;2022-11-15T00:16:14;6.30;99.90
13231;DHT22;6681;53.254;10.398;2022-11-15T00:18:40;6.30;99.90
13231;DHT22;6681;53.254;10.398;2022-11-15T00:21:09;6.20;99.90
13231;DHT22;6681;53.254;10.398;2022-11-15T00:23:35;6.20;99.90
13231;DHT22;6681;53.254;10.398;2022-11-15T00:26:01;6.20;99.90
13231;DHT22;6681;53.254;10.398;2022-11-15T00:28:26;6.20;99.90
13231;DHT22;6681;53.254;10.398;2022-11-15T00:30:52;6.40;99.90
13231;DHT22;6681;53.254;10.398;2022-11-15T00:33:18;6.20;99.90
13231;DHT22;6681;53.254;10.398;2022-11-15T00:35:44;6.20;99.90
13231;DHT22;6681;53.254;10.398;2022-11-15T00:38:09;6.20;99.90
13231;DHT22;6681;53.254;10.398;2022-11-15T00:40:35;6.30;99.90
13231;DHT22;6681;53.254;10.398;2022-11-15T00:43:01;6.30;99.90
13231;DHT22;6681;53.254;10.398;2022-11-15T00:45:26;6.20;99.90
13231;DHT22;6681;53.254;10.398;2022-11-15T00:47:52;6.30;99.90
13231;DHT22;6681;53.254;10.398;2022-11-15T00:50:18;6.20;99.90
13231;DHT22;6681;53.254;10.398;2022-11-15T00:52:44;6.20;99.90
13231;DHT22;6681;53.254;10.398;2022-11-15T00:55:14;6.30;99.90
13231;DHT22;6681;53.254;10.398;2022-11-15T00:57:40;6.20;99.90
13231;DHT22;6681;53.254;10.398;2022-11-15T01:00:07;6.30;99.90
13231;DHT22;6681;53.254;10.398;2022-11-15T01:02:33;6.20;99.90
13231;DHT22;6681;53.254;10.398;2022-11-15T01:04:59;6.20;99.90
13231;DHT22;6681;53.254;10.398;2022-11-15T01:07:25;6.20;99.90
13231;DHT22;6681;53.254;10.398;2022-11-15T01:09:51;6.10;99.90
13231;DHT22;6681;53.254;10.398;2022-11-15T01:12:16;6.10;99.90
13231;DHT22;6681;53.254;10.398;2022-11-15T01:14:42;6.10;99.90
13231;DHT22;6681;53.254;10.398;2022-11-15T01:17:08;6.00;99.90
13231;DHT22;6681;53.254;10.398;2022-11-15T01:19:33;6.00;99.90
13231;DHT22;6681;53.254;10.398;2022-11-15T01:21:59;6.00;99.90
13231;DHT22;6681;53.254;10.398;2022-11-15T01:24:25;5.90;99.90
13231;DHT22;6681;53.254;10.398;2022-11-15T01:26:50;5.90;99.90
13231;DHT22;6681;53.254;10.398;2022-11-15T01:29:16;6.30;99.90
13231;DHT22;6681;53.254;10.398;2022-11-15T01:31:42;6.00;99.90
13231;DHT22;6681;53.254;10.398;2022-11-15T01:34:07;6.00;99.90
13231;DHT22;6681;53.254;10.398;2022-11-15T01:36:33;5.90;99.90
13231;DHT22;6681;53.254;10.398;2022-11-15T01:38:59;5.90;99.90
13231;DHT22;6681;53.254;10.398;2022-11-15T01:41:31;5.90;99.90
13231;DHT22;6681;53.254;10.398;2022-11-15T01:47:04;5.90;99.90
13231;DHT22;6681;53.254;10.398;2022-11-15T01:49:33;5.90;99.90
13231;DHT22;6681;53.254;10.398;2022-11-15T01:52:02;5.90;99.90
13231;DHT22;6681;53.254;10.398;2022-11-15T01:54:29;5.90;99.90
13231;DHT22;6681;53.254;10.398;2022-11-15T01:57:04;6.10;99.90
13231;DHT22;6681;53.254;10.398;2022-11-15T01:59:32;5.90;99.90
13231;DHT22;6681;53.254;10.398;2022-11-15T02:01:58;5.90;99.90
13231;DHT22;6681;53.254;10.398;2022-11-15T02:04:31;5.90;99.90
13231;DHT22;6681;53.254;10.398;2022-11-15T02:06:57;5.80;99.90
13231;DHT22;6681;53.254;10.398;2022-11-15T02:09:24;5.80;99.90
13231;DHT22;6681;53.254;10.398;2022-11-15T02:11:50;5.70;99.90
13231;DHT22;6681;53.254;10.398;2022-11-15T02:14:18;5.90;99.90
13231;DHT22;6681;53.254;10.398;2022-11-15T02:16:57;6.70;99.90
13231;DHT22;6681;53.254;10.398;2022-11-15T02:23:32;5.80;99.90
13231;DHT22;6681;53.254;10.398;2022-11-15T02:25:37;5.80;99.90
13231;DHT22;6681;53.254;10.398;2022-11-15T02:39:10;5.60;99.90
13231;DHT22;6681;53.254;10.398;2022-11-15T02:41:46;5.60;99.90
13231;DHT22;6681;53.254;10.398;2022-11-15T02:44:29;5.50;99.90
13231;DHT22;6681;53.254;10.398;2022-11-15T02:47:00;5.50;99.90
13231;DHT22;6681;53.254;10.398;2022-11-15T02:49:46;5.50;99.90
13231;DHT22;6681;53.254;10.398;2022-11-15T02:52:20;5.50;99.90
13231;DHT22;6681;53.254;10.398;2022-11-15T02:54:57;5.50;99.90
13231;DHT22;6681;53.254;10.398;2022-11-15T03:00:12;5.60;99.90
13231;DHT22;6681;53.254;10.398;2022-11-15T03:08:18;5.40;99.90
13231;DHT22;6681;53.254;10.398;2022-11-15T03:13:57;5.40;99.90
13231;DHT22;6681;53.254;10.398;2022-11-15T03:16:41;5.40;99.90
13231;DHT22;6681;53.254;10.398;2022-11-15T03:22:10;5.30;99.90
13231;DHT22;6681;53.254;10.398;2022-11-15T03:24:37;5.30;99.90
13231;DHT22;6681;53.254;10.398;2022-11-15T03:27:06;5.80;99.90
13231;DHT22;6681;53.254;10.398;2022-11-15T03:29:45;5.30;99.90
13231;DHT22;6681;53.254;10.398;2022-11-15T03:32:18;5.40;99.90
13231;DHT22;6681;53.254;10.398;2022-11-15T03:34:50;5.40;99.90
13231;DHT22;6681;53.254;10.398;2022-11-15T03:37:21;5.40;99.90
13231;DHT22;6681;53.254;10.398;2022-11-15T03:39:47;5.40;99.90
13231;DHT22;6681;53.254;10.398;2022-11-15T03:42:30;5.50;99.90
13231;DHT22;6681;53.254;10.398;2022-11-15T03:45:08;5.40;99.90
13231;DHT22;6681;53.254;10.398;2022-11-15T03:47:45;5.50;99.90
13231;DHT22;6681;53.254;10.398;2022-11-15T03:50:15;5.50;99.90
13231;DHT22;6681;53.254;10.398;2022-11-15T03:52:42;5.50;99.90
13231;DHT22;6681;53.254;10.398;2022-11-15T03:55:13;5.50;99.90
13231;DHT22;6681;53.254;10.398;2022-11-15T03:57:39;5.50;99.90
13231;DHT22;6681;53.254;10.398;2022-11-15T04:00:05;5.50;99.90
13231;DHT22;6681;53.254;10.398;2022-11-15T04:02:31;5.50;99.90
13231;DHT22;6681;53.254;10.398;2022-11-15T04:04:56;5.50;99.90
13231;DHT22;6681;53.254;10.398;2022-11-15T04:07:22;5.50;99.90
13231;DHT22;6681;53.254;10.398;2022-11-15T04:09:48;5.50;99.90
13231;DHT22;6681;53.254;10.398;2022-11-15T04:12:37;5.60;99.90
13231;DHT22;6681;53.254;10.398;2022-11-15T04:15:14;5.60;99.90
13231;DHT22;6681;53.254;10.398;2022-11-15T04:22:55;5.70;99.90
13231;DHT22;6681;53.254;10.398;2022-11-15T04:25:40;5.60;99.90
13231;DHT22;6681;53.254;10.398;2022-11-15T04:28:06;5.80;99.90
13231;DHT22;6681;53.254;10.398;2022-11-15T04:30:32;5.70;99.90
13231;DHT22;6681;53.254;10.398;2022-11-15T04:32:58;5.70;99.90
13231;DHT22;6681;53.254;10.398;2022-11-15T04:35:23;8.30;99.90
13231;DHT22;6681;53.254;10.398;2022-11-15T04:37:49;5.80;99.90
13231;DHT22;6681;53.254;10.398;2022-11-15T04:40:15;5.80;99.90
13231;DHT22;6681;53.254;10.398;2022-11-15T04:42:41;5.80;99.90
13231;DHT22;6681;53.254;10.398;2022-11-15T04:45:08;5.70;99.90
13231;DHT22;6681;53.254;10.398;2022-11-15T04:47:34;5.70;99.90
13231;DHT22;6681;53.254;10.398;2022-11-15T04:50:00;5.70;99.90
13231;DHT22;6681;53.254;10.398;2022-11-15T04:52:26;5.80;99.90
13231;DHT22;6681;53.254;10.398;2022-11-15T04:54:51;5.80;99.90
13231;DHT22;6681;53.254;10.398;2022-11-15T04:57:17;5.90;99.90
13231;DHT22;6681;53.254;10.398;2022-11-15T04:59:43;6.00;99.90
13231;DHT22;6681;53.254;10.398;2022-11-15T05:02:08;5.90;99.90
13231;DHT22;6681;53.254;10.398;2022-11-15T05:04:34;5.80;99.90
13231;DHT22;6681;53.254;10.398;2022-11-15T05:07:00;5.80;99.90
13231;DHT22;6681;53.254;10.398;2022-11-15T05:09:25;5.70;99.90
13231;DHT22;6681;53.254;10.398;2022-11-15T05:11:51;5.70;99.90
13231;DHT22;6681;53.254;10.398;2022-11-15T05:14:17;5.70;99.90
13231;DHT22;6681;53.254;10.398;2022-11-15T05:16:42;5.80;99.90
13231;DHT22;6681;53.254;10.398;2022-11-15T05:19:08;5.70;99.90
13231;DHT22;6681;53.254;10.398;2022-11-15T05:21:35;6.20;99.90
13231;DHT22;6681;53.254;10.398;2022-11-15T05:24:00;5.80;99.90
13231;DHT22;6681;53.254;10.398;2022-11-15T05:26:27;5.70;99.90
13231;DHT22;6681;53.254;10.398;2022-11-15T05:28:54;5.70;99.90
13231;DHT22;6681;53.254;10.398;2022-11-15T05:31:20;5.70;99.90
13231;DHT22;6681;53.254;10.398;2022-11-15T05:33:46;5.70;99.90
13231;DHT22;6681;53.254;10.398;2022-11-15T05:38:49;5.60;99.90
13231;DHT22;6681;53.254;10.398;2022-11-15T05:41:17;5.60;99.90
13231;DHT22;6681;53.254;10.398;2022-11-15T05:43:44;5.60;99.90
13231;DHT22;6681;53.254;10.398;2022-11-15T05:46:11;5.60;99.90
13231;DHT22;6681;53.254;10.398;2022-11-15T05:48:41;5.60;99.90
13231;DHT22;6681;53.254;10.398;2022-11-15T05:51:08;5.60;99.90
13231;DHT22;6681;53.254;10.398;2022-11-15T05:53:35;5.60;99.90
13231;DHT22;6681;53.254;10.398;2022-11-15T05:56:03;5.60;99.90
13231;DHT22;6681;53.254;10.398;2022-11-15T05:58:31;5.60;99.90
13231;DHT22;6681;53.254;10.398;2022-11-15T06:00:57;7.10;99.90
13231;DHT22;6681;53.254;10.398;2022-11-15T06:03:23;5.60;99.90
13231;DHT22;6681;53.254;10.398;2022-11-15T06:05:49;5.60;99.90
13231;DHT22;6681;53.254;10.398;2022-11-15T06:08:14;5.60;99.90
13231;DHT22;6681;53.254;10.398;2022-11-15T06:10:40;5.60;99.90
13231;DHT22;6681;53.254;10.398;2022-11-15T06:13:05;5.60;99.90
13231;DHT22;6681;53.254;10.398;2022-11-15T06:15:34;5.70;99.90
13231;DHT22;6681;53.254;10.398;2022-11-15T06:18:00;6.00;99.90
13231;DHT22;6681;53.254;10.398;2022-11-15T06:20:27;5.60;99.90
13231;DHT22;6681;53.254;10.398;2022-11-15T06:23:02;5.90;99.90
13231;DHT22;6681;53.254;10.398;2022-11-15T06:25:28;5.80;99.90
13231;DHT22;6681;53.254;10.398;2022-11-15T06:27:55;5.70;99.90
13231;DHT22;6681;53.254;10.398;2022-11-15T06:30:22;5.70;99.90
13231;DHT22;6681;53.254;10.398;2022-11-15T06:32:48;5.80;99.90
13231;DHT22;6681;53.254;10.398;2022-11-15T06:35:14;5.80;99.90
13231;DHT22;6681;53.254;10.398;2022-11-15T06:37:40;5.80;99.90
13231;DHT22;6681;53.254;10.398;2022-11-15T06:40:07;5.80;99.90
13231;DHT22;6681;53.254;10.398;2022-11-15T06:42:33;5.80;99.90
13231;DHT22;6681;53.254;10.398;2022-11-15T06:44:59;5.80;99.90
13231;DHT22;6681;53.254;10.398;2022-11-15T06:47:25;5.80;99.90
13231;DHT22;6681;53.254;10.398;2022-11-15T06:49:51;6.10;99.90
13231;DHT22;6681;53.254;10.398;2022-11-15T06:52:16;6.00;99.90
13231;DHT22;6681;53.254;10.398;2022-11-15T06:54:47;6.00;99.90
13231;DHT22;6681;53.254;10.398;2022-11-15T06:57:15;6.00;99.90
13231;DHT22;6681;53.254;10.398;2022-11-15T06:59:41;6.00;99.90
13231;DHT22;6681;53.254;10.398;2022-11-15T07:02:12;6.10;99.90
13231;DHT22;6681;53.254;10.398;2022-11-15T07:04:38;6.10;99.90
13231;DHT22;6681;53.254;10.398;2022-11-15T07:07:04;6.20;99.90
13231;DHT22;6681;53.254;10.398;2022-11-15T07:09:29;6.20;99.90
13231;DHT22;6681;53.254;10.398;2022-11-15T07:11:58;6.10;99.90
13231;DHT22;6681;53.254;10.398;2022-11-15T07:14:23;6.40;99.90
13231;DHT22;6681;53.254;10.398;2022-11-15T07:16:49;6.20;99.90
13231;DHT22;6681;53.254;10.398;2022-11-15T07:19:15;6.20;99.90
13231;DHT22;6681;53.254;10.398;2022-11-15T07:21:40;6.30;99.90
13231;DHT22;6681;53.254;10.398;2022-11-15T07:24:06;6.20;99.90
13231;DHT22;6681;53.254;10.398;2022-11-15T07:26:32;6.30;99.90
13231;DHT22;6681;53.254;10.398;2022-11-15T07:28:57;6.70;99.90
13231;DHT22;6681;53.254;10.398;2022-11-15T07:31:23;6.40;99.90
13231;DHT22;6681;53.254;10.398;2022-11-15T07:33:48;6.40;99.90
13231;DHT22;6681;53.254;10.398;2022-11-15T07:36:14;6.40;99.90
13231;DHT22;6681;53.254;10.398;2022-11-15T07:38:40;6.50;99.90
13231;DHT22;6681;53.254;10.398;2022-11-15T07:41:06;6.50;99.90
13231;DHT22;6681;53.254;10.398;2022-11-15T07:43:32;6.50;99.90
13231;DHT22;6681;53.254;10.398;2022-11-15T07:46:04;6.50;99.90
13231;DHT22;6681;53.254;10.398;2022-11-15T07:48:30;6.50;99.90
13231;DHT22;6681;53.254;10.398;2022-11-15T07:50:56;6.50;99.90
13231;DHT22;6681;53.254;10.398;2022-11-15T07:53:21;6.60;99.90
13231;DHT22;6681;53.254;10.398;2022-11-15T07:55:47;6.70;99.90
13231;DHT22;6681;53.254;10.398;2022-11-15T07:58:12;6.70;99.90
13231;DHT22;6681;53.254;10.398;2022-11-15T08:00:38;6.80;99.90
13231;DHT22;6681;53.254;10.398;2022-11-15T08:03:12;6.80;99.90
13231;DHT22;6681;53.254;10.398;2022-11-15T08:05:40;6.90;99.90
13231;DHT22;6681;53.254;10.398;2022-11-15T08:08:07;6.90;99.90
13231;DHT22;6681;53.254;10.398;2022-11-15T08:10:33;6.90;99.90
13231;DHT22;6681;53.254;10.398;2022-11-15T08:13:00;7.30;99.90
13231;DHT22;6681;53.254;10.398;2022-11-15T08:15:27;7.00;99.90
13231;DHT22;6681;53.254;10.398;2022-11-15T08:17:58;7.10;99.90
13231;DHT22;6681;53.254;10.398;2022-11-15T08:20:26;7.10;99.90
13231;DHT22;6681;53.254;10.398;2022-11-15T08:22:52;7.10;99.90
13231;DHT22;6681;53.254;10.398;2022-11-15T08:25:17;7.10;99.90
13231;DHT22;6681;53.254;10.398;2022-11-15T08:27:43;7.20;99.90
13231;DHT22;6681;53.254;10.398;2022-11-15T08:30:10;7.20;99.90
13231;DHT22;6681;53.254;10.398;2022-11-15T08:32:36;7.20;99.90
13231;DHT22;6681;53.254;10.398;2022-11-15T08:35:02;7.40;99.90
13231;DHT22;6681;53.254;10.398;2022-11-15T08:37:28;7.30;99.90
13231;DHT22;6681;53.254;10.398;2022-11-15T08:39:53;7.50;99.90
13231;DHT22;6681;53.254;10.398;2022-11-15T08:42:19;7.60;99.90
13231;DHT22;6681;53.254;10.398;2022-11-15T08:44:45;7.40;99.90
13231;DHT22;6681;53.254;10.398;2022-11-15T08:47:13;7.40;99.90
13231;DHT22;6681;53.254;10.398;2022-11-15T08:49:39;7.50;99.90
13231;DHT22;6681;53.254;10.398;2022-11-15T08:52:05;7.50;99.90
13231;DHT22;6681;53.254;10.398;2022-11-15T08:54:30;7.50;99.90
13231;DHT22;6681;53.254;10.398;2022-11-15T08:56:57;7.50;99.90
13231;DHT22;6681;53.254;10.398;2022-11-15T08:59:22;7.50;99.90
13231;DHT22;6681;53.254;10.398;2022-11-15T09:01:48;7.50;99.90
13231;DHT22;6681;53.254;10.398;2022-11-15T09:04:14;7.60;99.90
13231;DHT22;6681;53.254;10.398;2022-11-15T09:06:39;7.60;99.90
13231;DHT22;6681;53.254;10.398;2022-11-15T09:09:05;7.60;99.90
13231;DHT22;6681;53.254;10.398;2022-11-15T09:11:31;7.70;99.90
13231;DHT22;6681;53.254;10.398;2022-11-15T09:13:57;7.80;99.90
13231;DHT22;6681;53.254;10.398;2022-11-15T09:16:22;7.70;99.90
13231;DHT22;6681;53.254;10.398;2022-11-15T09:18:48;7.70;99.90
13231;DHT22;6681;53.254;10.398;2022-11-15T09:21:14;7.80;99.90
13231;DHT22;6681;53.254;10.398;2022-11-15T09:23:39;7.70;99.90
13231;DHT22;6681;53.254;10.398;2022-11-15T09:26:05;7.80;99.90
13231;DHT22;6681;53.254;10.398;2022-11-15T09:28:32;7.80;99.90
13231;DHT22;6681;53.254;10.398;2022-11-15T09:30:59;7.80;99.90
13231;DHT22;6681;53.254;10.398;2022-11-15T09:33:26;7.80;99.90
13231;DHT22;6681;53.254;10.398;2022-11-15T09:35:52;7.80;99.90
13231;DHT22;6681;53.254;10.398;2022-11-15T09:38:18;8.00;99.90
13231;DHT22;6681;53.254;10.398;2022-11-15T09:40:43;8.00;99.90
13231;DHT22;6681;53.254;10.398;2022-11-15T09:43:38;8.20;99.90
13231;DHT22;6681;53.254;10.398;2022-11-15T09:48:54;8.30;99.90
13231;DHT22;6681;53.254;10.398;2022-11-15T09:51:41;8.40;99.90
13231;DHT22;6681;53.254;10.398;2022-11-15T09:54:29;8.50;99.90
13231;DHT22;6681;53.254;10.398;2022-11-15T09:57:02;8.60;99.90
13231;DHT22;6681;53.254;10.398;2022-11-15T10:05:20;9.00;99.90
13231;DHT22;6681;53.254;10.398;2022-11-15T10:11:02;9.10;99.90
13231;DHT22;6681;53.254;10.398;2022-11-15T10:13:33;9.20;99.90
13231;DHT22;6681;53.254;10.398;2022-11-15T10:21:54;9.50;99.90
13231;DHT22;6681;53.254;10.398;2022-11-15T10:24:26;9.50;99.90
13231;DHT22;6681;53.254;10.398;2022-11-15T10:26:54;9.60;99.90
13231;DHT22;6681;53.254;10.398;2022-11-15T10:29:21;9.60;99.90
13231;DHT22;6681;53.254;10.398;2022-11-15T10:31:47;9.70;99.90
13231;DHT22;6681;53.254;10.398;2022-11-15T10:34:16;9.80;99.90
13231;DHT22;6681;53.254;10.398;2022-11-15T10:36:55;9.90;99.90
13231;DHT22;6681;53.254;10.398;2022-11-15T10:39:21;10.00;99.90
13231;DHT22;6681;53.254;10.398;2022-11-15T10:41:47;10.10;99.90
13231;DHT22;6681;53.254;10.398;2022-11-15T10:44:24;10.20;99.90
13231;DHT22;6681;53.254;10.398;2022-11-15T10:49:26;10.30;99.90
13231;DHT22;6681;53.254;10.398;2022-11-15T10:52:02;10.40;99.90
13231;DHT22;6681;53.254;10.398;2022-11-15T10:57:31;10.50;99.90
13231;DHT22;6681;53.254;10.398;2022-11-15T11:00:01;10.50;99.90
13231;DHT22;6681;53.254;10.398;2022-11-15T11:02:37;10.60;99.90
13231;DHT22;6681;53.254;10.398;2022-11-15T11:05:24;10.60;99.90
13231;DHT22;6681;53.254;10.398;2022-11-15T11:10:27;10.80;99.90
13231;DHT22;6681;53.254;10.398;2022-11-15T11:12:53;10.90;99.90
13231;DHT22;6681;53.254;10.398;2022-11-15T11:15:19;10.90;99.90
13231;DHT22;6681;53.254;10.398;2022-11-15T11:18:15;11.00;99.90
13231;DHT22;6681;53.254;10.398;2022-11-15T11:20:51;11.00;99.90
13231;DHT22;6681;53.254;10.398;2022-11-15T11:26:00;11.20;99.90
13231;DHT22;6681;53.254;10.398;2022-11-15T11:28:42;11.20;99.90
13231;DHT22;6681;53.254;10.398;2022-11-15T11:36:21;11.30;99.90
13231;DHT22;6681;53.254;10.398;2022-11-15T11:44:41;11.40;99.90
13231;DHT22;6681;53.254;10.398;2022-11-15T11:47:24;11.50;99.90
13231;DHT22;6681;53.254;10.398;2022-11-15T11:49:51;11.60;99.90
13231;DHT22;6681;53.254;10.398;2022-11-15T11:55:40;11.70;99.90
13231;DHT22;6681;53.254;10.398;2022-11-15T11:58:17;11.70;99.90
13231;DHT22;6681;53.254;10.398;2022-11-15T12:12:23;11.90;99.90
13231;DHT22;6681;53.254;10.398;2022-11-15T12:17:34;12.00;99.90
13231;DHT22;6681;53.254;10.398;2022-11-15T12:20:29;12.00;99.90
13231;DHT22;6681;53.254;10.398;2022-11-15T12:25:47;12.10;99.90
13231;DHT22;6681;53.254;10.398;2022-11-15T12:28:24;12.10;99.90
13231;DHT22;6681;53.254;10.398;2022-11-15T12:31:00;12.10;99.90
13231;DHT22;6681;53.254;10.398;2022-11-15T12:33:40;12.10;99.90
13231;DHT22;6681;53.254;10.398;2022-11-15T12:36:11;12.20;99.90
13231;DHT22;6681;53.254;10.398;2022-11-15T12:39:06;12.20;99.90
13231;DHT22;6681;53.254;10.398;2022-11-15T12:41:43;12.20;99.90
13231;DHT22;6681;53.254;10.398;2022-11-15T12:47:21;12.20;99.90
13231;DHT22;6681;53.254;10.398;2022-11-15T12:49:48;12.30;99.90
13231;DHT22;6681;53.254;10.398;2022-11-15T12:52:13;12.20;99.90
13231;DHT22;6681;53.254;10.398;2022-11-15T13:00:48;12.20;99.90
13231;DHT22;6681;53.254;10.398;2022-11-15T13:03:22;12.20;99.90
13231;DHT22;6681;53.254;10.398;2022-11-15T13:05:56;12.30;99.90
13231;DHT22;6681;53.254;10.398;2022-11-15T13:08:37;12.40;99.90
13231;DHT22;6681;53.254;10.398;2022-11-15T13:11:47;12.30;99.90
13231;DHT22;6681;53.254;10.398;2022-11-15T13:15:07;12.40;99.90
13231;DHT22;6681;53.254;10.398;2022-11-15T13:17:51;12.30;99.90
13231;DHT22;6681;53.254;10.398;2022-11-15T13:22:50;12.30;99.90
13231;DHT22;6681;53.254;10.398;2022-11-15T13:30:32;12.20;99.90
13231;DHT22;6681;53.254;10.398;2022-11-15T13:33:08;12.20;99.90
13231;DHT22;6681;53.254;10.398;2022-11-15T13:35:39;12.20;99.90
13231;DHT22;6681;53.254;10.398;2022-11-15T13:38:05;12.10;99.90
13231;DHT22;6681;53.254;10.398;2022-11-15T13:40:36;12.00;99.90
13231;DHT22;6681;53.254;10.398;2022-11-15T13:43:27;12.10;99.90
13231;DHT22;6681;53.254;10.398;2022-11-15T13:46:16;12.10;99.90
13231;DHT22;6681;53.254;10.398;2022-11-15T13:48:43;12.00;99.90
13231;DHT22;6681;53.254;10.398;2022-11-15T13:51:25;12.10;99.90
13231;DHT22;6681;53.254;10.398;2022-11-15T13:54:17;12.10;99.90
13231;DHT22;6681;53.254;10.398;2022-11-15T13:56:55;12.00;99.90
13231;DHT22;6681;53.254;10.398;2022-11-15T13:59:35;12.00;99.90
13231;DHT22;6681;53.254;10.398;2022-11-15T14:02:13;12.00;99.90
13231;DHT22;6681;53.254;10.398;2022-11-15T14:04:47;12.00;99.90
13231;DHT22;6681;53.254;10.398;2022-11-15T14:07:20;12.00;99.90
13231;DHT22;6681;53.254;10.398;2022-11-15T14:09:47;12.00;99.90
13231;DHT22;6681;53.254;10.398;2022-11-15T14:14:51;11.90;99.90
13231;DHT22;6681;53.254;10.398;2022-11-15T14:17:37;11.90;99.90
13231;DHT22;6681;53.254;10.398;2022-11-15T14:20:24;11.90;99.90
13231;DHT22;6681;53.254;10.398;2022-11-15T14:22:56;11.90;99.90
13231;DHT22;6681;53.254;10.398;2022-11-15T14:25:30;11.90;99.90
13231;DHT22;6681;53.254;10.398;2022-11-15T14:30:38;11.80;99.90
13231;DHT22;6681;53.254;10.398;2022-11-15T14:33:22;11.80;99.90
13231;DHT22;6681;53.254;10.398;2022-11-15T14:35:49;11.90;99.90
13231;DHT22;6681;53.254;10.398;2022-11-15T14:38:15;11.90;99.90
13231;DHT22;6681;53.254;10.398;2022-11-15T14:40:42;11.90;99.90
13231;DHT22;6681;53.254;10.398;2022-11-15T14:43:12;11.90;99.90
13231;DHT22;6681;53.254;10.398;2022-11-15T14:45:38;11.80;99.90
13231;DHT22;6681;53.254;10.398;2022-11-15T14:48:04;11.80;99.90
13231;DHT22;6681;53.254;10.398;2022-11-15T14:50:30;11.70;99.90
13231;DHT22;6681;53.254;10.398;2022-11-15T14:52:57;11.70;99.90
13231;DHT22;6681;53.254;10.398;2022-11-15T14:55:26;11.70;99.90
13231;DHT22;6681;53.254;10.398;2022-11-15T14:57:53;11.60;99.90
13231;DHT22;6681;53.254;10.398;2022-11-15T15:00:18;11.70;99.90
13231;DHT22;6681;53.254;10.398;2022-11-15T15:02:46;11.70;99.90
13231;DHT22;6681;53.254;10.398;2022-11-15T15:05:20;11.70;99.90
13231;DHT22;6681;53.254;10.398;2022-11-15T15:07:46;11.70;99.90
13231;DHT22;6681;53.254;10.398;2022-11-15T15:10:13;11.60;99.90
13231;DHT22;6681;53.254;10.398;2022-11-15T15:12:39;11.60;99.90
13231;DHT22;6681;53.254;10.398;2022-11-15T15:15:05;11.60;99.90
13231;DHT22;6681;53.254;10.398;2022-11-15T15:17:31;11.60;99.90
13231;DHT22;6681;53.254;10.398;2022-11-15T15:19:57;11.50;99.90
13231;DHT22;6681;53.254;10.398;2022-11-15T15:22:22;11.40;99.90
13231;DHT22;6681;53.254;10.398;2022-11-15T15:24:51;11.40;99.90
13231;DHT22;6681;53.254;10.398;2022-11-15T15:27:17;11.40;99.90
13231;DHT22;6681;53.254;10.398;2022-11-15T15:29:43;11.30;99.90
13231;DHT22;6681;53.254;10.398;2022-11-15T15:32:10;11.30;99.90
13231;DHT22;6681;53.254;10.398;2022-11-15T15:34:36;11.30;99.90
13231;DHT22;6681;53.254;10.398;2022-11-15T15:37:21;11.20;99.90
13231;DHT22;6681;53.254;10.398;2022-11-15T15:39:55;11.10;99.90
13231;DHT22;6681;53.254;10.398;2022-11-15T15:42:22;11.10;99.90
13231;DHT22;6681;53.254;10.398;2022-11-15T15:44:48;11.10;99.90
13231;DHT22;6681;53.254;10.398;2022-11-15T15:47:20;11.10;99.90
13231;DHT22;6681;53.254;10.398;2022-11-15T15:49:46;11.10;99.90
13231;DHT22;6681;53.254;10.398;2022-11-15T15:52:12;11.00;99.90
13231;DHT22;6681;53.254;10.398;2022-11-15T15:54:39;11.00;99.90
13231;DHT22;6681;53.254;10.398;2022-11-15T15:57:06;11.00;99.90
13231;DHT22;6681;53.254;10.398;2022-11-15T15:59:31;11.00;99.90
13231;DHT22;6681;53.254;10.398;2022-11-15T16:01:57;11.00;99.90
13231;DHT22;6681;53.254;10.398;2022-11-15T16:04:23;10.90;99.90
13231;DHT22;6681;53.254;10.398;2022-11-15T16:06:49;10.90;99.90
13231;DHT22;6681;53.254;10.398;2022-11-15T16:09:18;10.90;99.90
13231;DHT22;6681;53.254;10.398;2022-11-15T16:12:04;10.90;99.90
13231;DHT22;6681;53.254;10.398;2022-11-15T16:14:31;10.80;99.90
13231;DHT22;6681;53.254;10.398;2022-11-15T16:16:57;10.80;99.90
13231;DHT22;6681;53.254;10.398;2022-11-15T16:19:22;10.80;99.90
13231;DHT22;6681;53.254;10.398;2022-11-15T16:21:48;10.70;99.90
13231;DHT22;6681;53.254;10.398;2022-11-15T16:24:14;10.70;99.90
13231;DHT22;6681;53.254;10.398;2022-11-15T16:26:39;9.10;99.90
13231;DHT22;6681;53.254;10.398;2022-11-15T16:29:05;10.70;99.90
13231;DHT22;6681;53.254;10.398;2022-11-15T16:31:34;10.60;99.90
13231;DHT22;6681;53.254;10.398;2022-11-15T16:34:03;10.60;99.90
13231;DHT22;6681;53.254;10.398;2022-11-15T16:36:34;10.70;99.90
13231;DHT22;6681;53.254;10.398;2022-11-15T16:39:01;10.60;99.90
13231;DHT22;6681;53.254;10.398;2022-11-15T16:41:30;10.60;99.90
13231;DHT22;6681;53.254;10.398;2022-11-15T16:43:56;10.60;99.90
13231;DHT22;6681;53.254;10.398;2022-11-15T16:46:26;10.60;99.90
13231;DHT22;6681;53.254;10.398;2022-11-15T16:48:53;10.60;99.90
13231;DHT22;6681;53.254;10.398;2022-11-15T16:51:19;10.60;99.90
13231;DHT22;6681;53.254;10.398;2022-11-15T16:53:45;10.60;99.90
13231;DHT22;6681;53.254;10.398;2022-11-15T16:56:26;10.60;99.90
13231;DHT22;6681;53.254;10.398;2022-11-15T16:58:56;10.60;99.90
13231;DHT22;6681;53.254;10.398;2022-11-15T17:01:32;10.70;99.90
13231;DHT22;6681;53.254;10.398;2022-11-15T17:04:03;10.70;99.90
13231;DHT22;6681;53.254;10.398;2022-11-15T17:06:38;10.70;99.90
13231;DHT22;6681;53.254;10.398;2022-11-15T17:09:05;10.70;99.90
13231;DHT22;6681;53.254;10.398;2022-11-15T17:11:30;10.70;99.90
13231;DHT22;6681;53.254;10.398;2022-11-15T17:13:57;10.70;99.90
13231;DHT22;6681;53.254;10.398;2022-11-15T17:16:23;10.70;99.90
13231;DHT22;6681;53.254;10.398;2022-11-15T17:18:52;10.70;99.90
13231;DHT22;6681;53.254;10.398;2022-11-15T17:21:19;10.70;99.90
13231;DHT22;6681;53.254;10.398;2022-11-15T17:23:45;10.60;99.90
13231;DHT22;6681;53.254;10.398;2022-11-15T17:26:13;10.50;99.90
13231;DHT22;6681;53.254;10.398;2022-11-15T17:28:42;10.60;99.90
13231;DHT22;6681;53.254;10.398;2022-11-15T17:31:09;10.60;99.90
13231;DHT22;6681;53.254;10.398;2022-11-15T17:33:36;10.60;99.90
13231;DHT22;6681;53.254;10.398;2022-11-15T17:36:04;10.60;99.90
13231;DHT22;6681;53.254;10.398;2022-11-15T17:38:31;10.60;99.90
13231;DHT22;6681;53.254;10.398;2022-11-15T17:41:01;10.60;99.90
13231;DHT22;6681;53.254;10.398;2022-11-15T17:43:29;10.60;99.90
13231;DHT22;6681;53.254;10.398;2022-11-15T17:45:55;10.60;99.90
13231;DHT22;6681;53.254;10.398;2022-11-15T17:48:20;10.70;99.90
13231;DHT22;6681;53.254;10.398;2022-11-15T17:50:56;10.70;99.90
13231;DHT22;6681;53.254;10.398;2022-11-15T17:53:23;10.70;99.90
13231;DHT22;6681;53.254;10.398;2022-11-15T17:55:49;10.70;99.90